createdAt,value
2019-03-09T00:05:20.901Z,24.3
2019-03-09T00:15:20.130Z,24.6
2019-03-09T00:25:19.322Z,24.5
2019-03-09T00:35:18.532Z,24.3
2019-03-09T00:45:17.817Z,23.9
2019-03-09T00:55:17.105Z,24.4
2019-03-09T01:05:16.389Z,24.4
2019-03-09T01:15:15.674Z,24.2
2019-03-09T01:25:14.961Z,24
2019-03-09T01:35:14.212Z,24.3
2019-03-09T01:45:13.421Z,24.4
2019-03-09T01:55:12.632Z,23.3
2019-03-09T02:05:11.842Z,24.3
2019-03-09T02:15:11.050Z,25.8
2019-03-09T02:25:10.265Z,26.1
2019-03-09T02:35:09.473Z,25.5
2019-03-09T02:45:08.681Z,24.9
2019-03-09T02:55:07.893Z,24.1
2019-03-09T03:05:07.099Z,23.4
2019-03-09T03:15:06.309Z,24.4
2019-03-09T03:25:05.528Z,24.9
2019-03-09T03:35:04.744Z,24.6
2019-03-09T03:45:03.940Z,24
2019-03-09T03:55:03.152Z,23.4
2019-03-09T04:05:02.359Z,24.6
2019-03-09T04:15:01.611Z,25.1
2019-03-09T04:25:00.775Z,24.9
2019-03-09T04:34:59.988Z,24.7
2019-03-09T04:44:59.192Z,24.7
2019-03-09T04:54:58.399Z,24.4
2019-03-09T05:04:58.907Z,24.1
2019-03-09T05:14:56.818Z,24.1
2019-03-09T05:24:56.035Z,24.2
2019-03-09T05:34:55.242Z,24.4
2019-03-09T05:44:54.442Z,23.3
2019-03-09T05:54:53.648Z,24.4
2019-03-09T06:04:52.857Z,25.8
2019-03-09T06:14:52.065Z,25.9
2019-03-09T06:24:51.326Z,25.1
2019-03-09T06:34:50.485Z,25
2019-03-09T06:44:49.745Z,24.6
2019-03-09T06:54:48.904Z,24.6
2019-03-09T07:04:48.114Z,24.7
2019-03-09T07:14:47.332Z,24.9
2019-03-09T07:24:46.534Z,25.4
2019-03-09T07:34:45.746Z,25.9
2019-03-09T07:44:44.968Z,26.1
2019-03-09T07:54:44.167Z,26
2019-03-09T08:04:43.380Z,26.4
2019-03-09T08:14:42.590Z,26.8
2019-03-09T08:24:41.805Z,27.1
2019-03-09T08:34:41.017Z,27.3
2019-03-09T08:44:40.227Z,27.3
2019-03-09T08:54:39.445Z,27.3
2019-03-09T09:04:38.656Z,27.3
2019-03-09T09:14:37.877Z,27.4
2019-03-09T09:24:37.098Z,27.5
2019-03-09T09:34:36.329Z,27.4
2019-03-09T09:44:35.542Z,27.3
2019-03-09T09:54:34.816Z,27.1
2019-03-09T10:04:33.989Z,26.9
2019-03-09T10:14:33.209Z,26.8
2019-03-09T10:24:32.431Z,26.3
2019-03-09T10:34:31.646Z,26.8
2019-03-09T10:44:30.862Z,27.3
2019-03-09T10:54:35.889Z,27.3
2019-03-09T11:04:29.293Z,27
2019-03-09T11:14:28.512Z,26.7
2019-03-09T11:24:27.723Z,26.4
2019-03-09T11:31:30.356Z,26.8
2019-03-09T11:41:29.572Z,27.6
2019-03-09T11:51:28.788Z,27.7
2019-03-09T12:01:27.996Z,27.4
2019-03-09T12:11:27.263Z,27.1
2019-03-09T12:21:26.433Z,26.8
2019-03-09T12:31:25.642Z,26.6
2019-03-09T12:41:25.027Z,26.8
2019-03-09T12:51:24.219Z,26.9
2019-03-09T13:01:23.511Z,26.7
2019-03-09T13:11:22.801Z,26.4
2019-03-09T13:21:22.093Z,26.4
2019-03-09T13:31:21.344Z,26.5
2019-03-09T13:41:20.563Z,26.7
2019-03-09T13:51:19.822Z,26.5
2019-03-09T14:01:18.991Z,27
2019-03-09T14:11:18.200Z,27.1
2019-03-09T14:21:17.414Z,26.9
2019-03-09T14:31:16.684Z,26.6
2019-03-09T14:41:15.841Z,26.1
2019-03-09T14:51:15.054Z,26.9
2019-03-09T15:01:14.267Z,27.1
2019-03-09T15:11:13.481Z,27
2019-03-09T15:21:12.696Z,26.6
2019-03-09T15:31:11.908Z,26.4
2019-03-09T15:41:11.126Z,26.8
2019-03-09T15:51:10.338Z,27.1
2019-03-09T16:01:09.587Z,27.2
2019-03-09T16:11:08.768Z,26.9
2019-03-09T16:21:07.986Z,26.5
2019-03-09T16:31:07.199Z,26.1
2019-03-09T16:41:06.413Z,25.8
2019-03-09T16:51:05.632Z,25.8
2019-03-09T17:01:04.845Z,25.5
2019-03-09T17:11:04.057Z,26
2019-03-09T17:21:03.273Z,25.9
2019-03-09T17:31:02.486Z,26.2
2019-03-09T17:36:19.225Z,25.7
2019-03-09T17:46:18.445Z,25.6
2019-03-09T17:56:17.654Z,25.4
2019-03-09T18:06:16.867Z,25.2
2019-03-09T18:16:16.083Z,25.2
2019-03-09T18:26:15.297Z,25
2019-03-09T18:36:14.514Z,24.9
2019-03-09T18:46:14.030Z,24.9
2019-03-09T18:56:13.093Z,25.1
2019-03-09T19:06:12.392Z,25
2019-03-09T19:16:11.670Z,24.9
2019-03-09T19:26:10.968Z,25
2019-03-09T19:36:10.222Z,25.4
2019-03-09T19:46:09.430Z,25.1
2019-03-09T19:56:08.646Z,25
2019-03-09T20:06:07.863Z,24.9
2019-03-09T20:16:07.077Z,24.8
2019-03-09T20:26:06.294Z,24.8
2019-03-09T20:36:05.512Z,24.5
2019-03-09T20:46:04.727Z,24.6
2019-03-09T20:56:03.943Z,24.7
2019-03-09T21:06:03.173Z,24.6
2019-03-09T21:16:02.378Z,24.3
2019-03-09T21:26:01.590Z,24.4
2019-03-09T21:36:00.806Z,24.2
2019-03-09T21:46:00.025Z,24.3
2019-03-09T21:55:59.239Z,24.4
2019-03-09T22:06:05.844Z,24.5
2019-03-09T22:15:57.667Z,24.5
2019-03-09T22:25:56.880Z,24.3
2019-03-09T22:35:56.095Z,24.4
2019-03-09T22:45:55.309Z,24.4
2019-03-09T22:55:54.521Z,24.5
2019-03-09T23:05:53.741Z,24.5
2019-03-09T23:15:52.949Z,24.4
2019-03-09T23:25:52.162Z,24.3
2019-03-09T23:35:51.375Z,24.2
2019-03-09T23:45:50.589Z,24.5
2019-03-09T23:55:49.805Z,24.4
